createdAt,value
2018-07-17T00:00:42.594Z,16.20
2018-07-17T00:03:10.909Z,16.30
2018-07-17T00:05:39.001Z,16.30
2018-07-17T00:08:07.127Z,16.30
2018-07-17T00:10:35.221Z,16.20
2018-07-17T00:13:03.342Z,16.10
2018-07-17T00:15:31.441Z,16.00
2018-07-17T00:17:59.554Z,16.00
2018-07-17T00:20:27.657Z,15.90
2018-07-17T00:22:55.776Z,16.00
2018-07-17T00:25:23.866Z,15.90
2018-07-17T00:27:51.992Z,15.90
2018-07-17T00:30:20.103Z,15.90
2018-07-17T00:32:48.218Z,15.80
2018-07-17T00:35:16.317Z,15.80
2018-07-17T00:37:44.482Z,15.80
2018-07-17T00:40:12.590Z,15.80
2018-07-17T00:42:40.698Z,15.80
2018-07-17T00:45:08.829Z,15.90
2018-07-17T00:47:37.038Z,16.00
2018-07-17T00:50:05.190Z,15.90
2018-07-17T00:52:33.761Z,15.90
2018-07-17T00:55:01.882Z,15.90
2018-07-17T00:57:30.013Z,15.90
2018-07-17T00:59:58.148Z,15.90
2018-07-17T01:02:31.790Z,15.90
2018-07-17T01:05:05.405Z,15.80
2018-07-17T01:07:39.054Z,15.80
2018-07-17T01:10:12.537Z,15.70
2018-07-17T01:12:39.945Z,15.70
2018-07-17T01:15:28.318Z,15.70
2018-07-17T01:17:56.486Z,15.80
2018-07-17T01:20:24.605Z,15.70
2018-07-17T01:22:52.722Z,15.70
2018-07-17T01:25:20.878Z,15.70
2018-07-17T01:27:49.041Z,15.80
2018-07-17T01:30:17.149Z,15.80
2018-07-17T01:32:45.278Z,15.80
2018-07-17T01:35:13.399Z,15.90
2018-07-17T01:37:41.525Z,15.80
2018-07-17T01:40:09.638Z,15.80
2018-07-17T01:42:37.782Z,15.70
2018-07-17T01:45:05.922Z,15.60
2018-07-17T01:47:34.042Z,15.60
2018-07-17T01:50:02.181Z,15.80
2018-07-17T01:52:30.307Z,15.70
2018-07-17T01:54:58.441Z,15.80
2018-07-17T01:57:26.544Z,15.80
2018-07-17T01:59:54.651Z,15.80
2018-07-17T02:02:22.749Z,15.80
2018-07-17T02:04:50.914Z,15.80
2018-07-17T02:07:18.993Z,15.60
2018-07-17T02:09:47.144Z,15.60
2018-07-17T02:12:15.247Z,15.60
2018-07-17T02:14:43.361Z,15.60
2018-07-17T02:17:11.538Z,15.60
2018-07-17T02:19:39.641Z,15.60
2018-07-17T02:22:07.745Z,15.60
2018-07-17T02:24:35.872Z,15.70
2018-07-17T02:27:03.970Z,15.70
2018-07-17T02:29:32.086Z,15.70
2018-07-17T02:32:00.212Z,15.70
2018-07-17T02:34:28.309Z,15.70
2018-07-17T02:36:56.405Z,15.70
2018-07-17T02:39:24.516Z,15.60
2018-07-17T02:41:52.619Z,15.60
2018-07-17T02:44:20.725Z,15.50
2018-07-17T02:46:48.844Z,15.40
2018-07-17T02:49:16.945Z,15.40
2018-07-17T02:51:45.049Z,15.40
2018-07-17T02:54:13.165Z,15.40
2018-07-17T02:56:41.267Z,15.40
2018-07-17T02:59:09.438Z,15.40
2018-07-17T03:04:05.446Z,15.50
2018-07-17T03:06:33.549Z,15.60
2018-07-17T03:09:01.691Z,15.60
2018-07-17T03:11:29.830Z,15.50
2018-07-17T03:13:57.933Z,15.60
2018-07-17T03:16:26.047Z,15.50
2018-07-17T03:18:54.169Z,15.40
2018-07-17T03:21:22.267Z,15.30
2018-07-17T03:23:50.362Z,15.30
2018-07-17T03:26:18.477Z,15.30
2018-07-17T03:28:46.578Z,15.30
2018-07-17T03:31:14.689Z,15.30
2018-07-17T03:33:42.793Z,15.20
2018-07-17T03:36:10.923Z,15.30
2018-07-17T03:38:39.087Z,15.30
2018-07-17T03:41:07.200Z,15.30
2018-07-17T03:43:35.375Z,15.20
2018-07-17T03:46:03.480Z,15.20
2018-07-17T03:48:31.594Z,15.10
2018-07-17T03:50:59.698Z,15.20
2018-07-17T03:53:27.793Z,15.20
2018-07-17T03:55:55.913Z,15.20
2018-07-17T03:58:24.028Z,15.20
2018-07-17T04:00:52.152Z,15.20
2018-07-17T04:03:20.471Z,15.10
2018-07-17T04:05:48.595Z,15.10
2018-07-17T04:08:16.706Z,15.10
2018-07-17T04:10:44.821Z,15.00
2018-07-17T04:13:12.940Z,15.00
2018-07-17T04:15:41.057Z,15.00
2018-07-17T04:18:09.175Z,15.10
2018-07-17T04:20:37.294Z,15.10
2018-07-17T04:23:05.962Z,15.10
2018-07-17T04:25:34.086Z,15.10
2018-07-17T04:28:02.226Z,15.10
2018-07-17T04:30:30.339Z,15.20
2018-07-17T04:32:58.471Z,15.30
2018-07-17T04:35:26.582Z,15.60
2018-07-17T04:37:54.782Z,15.90
2018-07-17T04:40:22.916Z,16.00
2018-07-17T04:42:51.039Z,16.00
2018-07-17T04:45:19.160Z,16.10
2018-07-17T04:47:47.282Z,16.40
2018-07-17T04:50:15.406Z,16.60
2018-07-17T04:52:43.542Z,16.70
2018-07-17T04:55:11.674Z,16.50
2018-07-17T04:57:39.793Z,16.40
2018-07-17T05:00:07.912Z,16.40
2018-07-17T05:02:36.025Z,16.40
2018-07-17T05:05:04.325Z,16.40
2018-07-17T05:07:32.441Z,16.60
2018-07-17T05:10:00.549Z,16.70
2018-07-17T05:12:28.665Z,16.60
2018-07-17T05:14:56.770Z,16.70
2018-07-17T05:17:24.888Z,16.70
2018-07-17T05:19:52.994Z,16.80
2018-07-17T05:22:21.134Z,17.00
2018-07-17T05:24:49.256Z,17.70
2018-07-17T05:27:17.384Z,18.30
2018-07-17T05:29:45.494Z,18.60
2018-07-17T05:32:13.617Z,18.80
2018-07-17T05:34:41.737Z,19.00
2018-07-17T05:37:09.849Z,19.50
2018-07-17T05:39:37.969Z,19.60
2018-07-17T05:42:06.089Z,19.80
2018-07-17T05:44:34.207Z,20.20
2018-07-17T05:47:02.333Z,20.00
2018-07-17T05:49:30.460Z,20.30
2018-07-17T05:51:58.669Z,20.50
2018-07-17T05:54:26.831Z,20.70
2018-07-17T05:56:54.966Z,20.90
2018-07-17T05:59:23.238Z,21.40
2018-07-17T06:01:51.363Z,22.00
2018-07-17T06:04:19.515Z,22.70
2018-07-17T06:06:47.673Z,23.00
2018-07-17T06:09:15.813Z,23.00
2018-07-17T06:14:11.833Z,23.90
2018-07-17T06:16:39.975Z,24.00
2018-07-17T06:19:08.208Z,24.20
2018-07-17T06:21:36.248Z,25.20
2018-07-17T06:24:04.386Z,25.80
2018-07-17T06:26:32.525Z,26.10
2018-07-17T06:29:00.664Z,25.80
2018-07-17T06:31:28.825Z,26.20
2018-07-17T06:33:56.977Z,25.90
2018-07-17T06:36:25.107Z,26.70
2018-07-17T06:38:53.236Z,27.30
2018-07-17T06:41:21.360Z,26.20
2018-07-17T06:43:49.497Z,25.40
2018-07-17T06:46:17.679Z,25.50
2018-07-17T06:48:45.814Z,26.10
2018-07-17T06:51:13.938Z,26.90
2018-07-17T06:53:42.079Z,27.10
2018-07-17T06:56:10.201Z,27.00
2018-07-17T06:58:38.328Z,27.20
2018-07-17T07:01:06.470Z,27.80
2018-07-17T07:03:34.605Z,28.30
2018-07-17T07:06:02.724Z,28.90
2018-07-17T07:08:30.849Z,28.90
2018-07-17T07:10:59.009Z,29.00
2018-07-17T07:13:27.174Z,28.90
2018-07-17T07:15:55.303Z,29.90
2018-07-17T07:18:23.408Z,29.60
2018-07-17T07:20:51.545Z,29.20
2018-07-17T07:23:19.728Z,29.50
2018-07-17T07:25:47.806Z,29.40
2018-07-17T07:28:15.953Z,28.40
2018-07-17T07:30:44.075Z,28.30
2018-07-17T07:33:12.196Z,28.00
2018-07-17T07:35:40.326Z,28.90
2018-07-17T07:38:08.469Z,29.30
2018-07-17T07:40:36.652Z,28.90
2018-07-17T07:43:04.741Z,29.50
2018-07-17T07:45:32.857Z,29.30
2018-07-17T07:48:00.981Z,29.60
2018-07-17T07:50:29.111Z,29.30
2018-07-17T07:52:57.258Z,29.90
2018-07-17T07:55:25.413Z,29.90
2018-07-17T07:57:53.525Z,29.90
2018-07-17T08:00:21.653Z,29.90
2018-07-17T08:02:49.792Z,30.10
2018-07-17T08:05:17.941Z,29.50
2018-07-17T08:07:46.055Z,28.00
2018-07-17T08:10:14.199Z,28.60
2018-07-17T08:12:42.325Z,28.70
2018-07-17T08:15:10.459Z,29.70
2018-07-17T08:17:38.582Z,30.20
2018-07-17T08:20:06.722Z,29.20
2018-07-17T08:22:34.857Z,27.70
2018-07-17T08:25:03.018Z,28.70
2018-07-17T08:27:31.191Z,28.30
2018-07-17T08:29:59.315Z,28.90
2018-07-17T08:32:27.446Z,28.80
2018-07-17T08:34:55.579Z,28.50
2018-07-17T08:37:23.707Z,29.30
2018-07-17T08:39:51.853Z,29.70
2018-07-17T08:42:20.022Z,29.80
2018-07-17T08:44:48.221Z,29.60
2018-07-17T08:47:16.334Z,28.80
2018-07-17T08:49:44.476Z,29.90
2018-07-17T08:52:12.598Z,30.70
2018-07-17T08:54:40.822Z,31.50
2018-07-17T08:57:08.869Z,32.30
2018-07-17T08:59:36.978Z,31.60
2018-07-17T09:02:05.134Z,32.00
2018-07-17T09:04:33.245Z,32.50
2018-07-17T09:07:01.524Z,32.30
2018-07-17T09:09:29.650Z,32.10
2018-07-17T09:11:57.781Z,32.10
2018-07-17T09:14:25.887Z,32.80
2018-07-17T09:16:54.011Z,32.10
2018-07-17T09:19:22.126Z,33.00
2018-07-17T09:21:50.246Z,33.20
2018-07-17T09:24:18.372Z,32.10
2018-07-17T09:26:46.487Z,32.80
2018-07-17T09:29:14.596Z,33.20
2018-07-17T09:31:42.717Z,33.70
2018-07-17T09:34:10.842Z,33.60
2018-07-17T09:36:38.953Z,33.70
2018-07-17T09:39:08.254Z,33.60
2018-07-17T09:41:36.390Z,33.70
2018-07-17T09:44:04.514Z,33.30
2018-07-17T09:46:32.629Z,34.40
2018-07-17T09:49:00.732Z,35.10
2018-07-17T09:51:28.865Z,33.90
2018-07-17T09:53:56.997Z,34.10
2018-07-17T09:56:25.189Z,31.30
2018-07-17T09:58:53.366Z,30.70
2018-07-17T10:02:25.478Z,33.50
2018-07-17T10:04:53.602Z,34.30
2018-07-17T10:07:21.745Z,35.00
2018-07-17T10:09:49.936Z,34.60
2018-07-17T10:12:18.007Z,34.80
2018-07-17T10:14:46.146Z,34.90
2018-07-17T10:17:14.282Z,34.60
2018-07-17T10:19:42.406Z,34.60
2018-07-17T10:22:10.550Z,35.50
2018-07-17T10:24:38.680Z,35.40
2018-07-17T10:29:34.727Z,34.60
2018-07-17T10:32:02.916Z,34.80
2018-07-17T10:34:30.996Z,34.80
2018-07-17T10:36:59.112Z,34.80
2018-07-17T10:39:27.246Z,34.10
2018-07-17T10:41:55.370Z,34.40
2018-07-17T10:44:23.518Z,34.90
2018-07-17T10:46:51.665Z,34.60
2018-07-17T10:49:19.795Z,35.10
2018-07-17T10:51:47.946Z,35.10
2018-07-17T10:54:16.111Z,34.70
2018-07-17T10:56:44.248Z,34.80
2018-07-17T10:59:12.387Z,34.70
2018-07-17T11:01:40.523Z,34.80
2018-07-17T11:04:08.660Z,35.40
2018-07-17T11:06:36.788Z,34.20
2018-07-17T11:09:05.553Z,32.30
2018-07-17T11:11:33.701Z,33.10
2018-07-17T11:14:01.829Z,33.90
2018-07-17T11:16:30.013Z,34.60
2018-07-17T11:18:58.182Z,35.00
2018-07-17T11:21:26.313Z,34.90
2018-07-17T11:23:54.432Z,34.40
2018-07-17T11:26:22.560Z,34.40
2018-07-17T11:28:50.714Z,34.90
2018-07-17T11:31:19.019Z,34.90
2018-07-17T11:33:47.161Z,34.40
2018-07-17T11:36:15.282Z,35.20
2018-07-17T11:38:43.568Z,34.10
2018-07-17T11:41:11.635Z,34.10
2018-07-17T11:43:39.809Z,34.90
2018-07-17T11:46:07.950Z,35.10
2018-07-17T11:48:36.077Z,33.80
2018-07-17T11:51:04.210Z,33.70
2018-07-17T11:53:32.351Z,34.40
2018-07-17T11:56:00.502Z,34.40
2018-07-17T11:58:28.689Z,34.10
2018-07-17T12:00:56.951Z,34.20
2018-07-17T12:03:25.098Z,34.10
2018-07-17T12:05:53.330Z,33.70
2018-07-17T12:08:21.373Z,34.40
2018-07-17T12:10:49.511Z,34.00
2018-07-17T12:13:17.641Z,33.30
2018-07-17T12:15:45.777Z,32.30
2018-07-17T12:18:13.917Z,31.60
2018-07-17T12:20:42.068Z,32.60
2018-07-17T12:23:10.201Z,33.30
2018-07-17T12:25:38.329Z,34.20
2018-07-17T12:28:06.578Z,32.30
2018-07-17T12:30:34.619Z,32.50
2018-07-17T12:33:02.737Z,33.80
2018-07-17T12:35:30.871Z,34.10
2018-07-17T12:37:58.982Z,33.70
2018-07-17T12:40:27.121Z,32.80
2018-07-17T12:42:55.248Z,32.10
2018-07-17T12:45:23.377Z,31.70
2018-07-17T12:47:51.524Z,32.60
2018-07-17T12:50:19.662Z,33.00
2018-07-17T12:52:47.793Z,33.50
2018-07-17T12:55:15.974Z,33.90
2018-07-17T12:57:44.046Z,33.30
2018-07-17T13:00:12.197Z,32.30
2018-07-17T13:02:40.383Z,32.00
2018-07-17T13:05:08.457Z,31.60
2018-07-17T13:07:36.577Z,31.30
2018-07-17T13:10:05.205Z,30.80
2018-07-17T13:12:33.351Z,30.60
2018-07-17T13:15:01.491Z,30.30
2018-07-17T13:17:29.704Z,30.60
2018-07-17T13:19:57.734Z,30.60
2018-07-17T13:22:25.914Z,30.90
2018-07-17T13:27:21.965Z,31.00
2018-07-17T13:29:50.090Z,30.50
2018-07-17T13:32:18.240Z,30.60
2018-07-17T13:34:46.549Z,30.50
2018-07-17T13:37:14.674Z,30.70
2018-07-17T13:39:42.814Z,30.40
2018-07-17T13:42:10.946Z,30.00
2018-07-17T13:44:39.167Z,29.70
2018-07-17T13:47:07.278Z,29.10
2018-07-17T13:49:35.397Z,28.30
2018-07-17T13:52:03.531Z,27.70
2018-07-17T13:54:31.653Z,27.30
2018-07-17T13:56:59.793Z,26.70
2018-07-17T13:59:27.943Z,25.30
2018-07-17T14:01:56.062Z,24.40
2018-07-17T14:04:24.235Z,24.10
2018-07-17T14:06:52.440Z,24.00
2018-07-17T14:09:20.515Z,24.20
2018-07-17T14:11:48.646Z,24.20
2018-07-17T14:14:16.793Z,24.80
2018-07-17T14:16:44.981Z,25.70
2018-07-17T14:19:13.158Z,26.30
2018-07-17T14:21:41.297Z,26.10
2018-07-17T14:24:09.416Z,26.00
2018-07-17T14:26:37.610Z,25.80
2018-07-17T14:29:05.811Z,25.90
2018-07-17T14:31:33.931Z,26.10
2018-07-17T14:34:02.083Z,26.00
2018-07-17T14:36:30.257Z,26.10
2018-07-17T14:38:58.390Z,26.20
2018-07-17T14:41:26.963Z,26.90
2018-07-17T14:43:55.007Z,27.60
2018-07-17T14:46:23.146Z,27.80
2018-07-17T14:48:51.266Z,27.70
2018-07-17T14:51:19.415Z,26.80
2018-07-17T14:53:47.543Z,27.10
2018-07-17T14:56:15.674Z,27.50
2018-07-17T14:58:43.811Z,27.90
2018-07-17T15:01:11.957Z,27.90
2018-07-17T15:03:40.081Z,27.80
2018-07-17T15:06:08.214Z,27.30
2018-07-17T15:08:36.364Z,27.20
2018-07-17T15:11:04.506Z,27.30
2018-07-17T15:13:33.272Z,27.50
2018-07-17T15:16:01.398Z,27.50
2018-07-17T15:18:29.529Z,27.30
2018-07-17T15:20:57.863Z,27.20
2018-07-17T15:23:25.990Z,27.30
2018-07-17T15:25:54.122Z,27.30
2018-07-17T15:28:22.262Z,27.30
2018-07-17T15:30:51.411Z,27.40
2018-07-17T15:33:19.556Z,27.50
2018-07-17T15:35:47.741Z,27.00
2018-07-17T15:38:15.903Z,27.00
2018-07-17T15:40:44.072Z,26.70
2018-07-17T15:43:12.190Z,26.30
2018-07-17T15:45:40.442Z,26.60
2018-07-17T15:48:08.552Z,26.80
2018-07-17T15:50:36.686Z,26.90
2018-07-17T15:53:04.865Z,26.80
2018-07-17T15:55:32.990Z,27.00
2018-07-17T15:58:01.149Z,26.40
2018-07-17T16:00:29.262Z,26.40
2018-07-17T16:02:57.406Z,26.70
2018-07-17T16:05:25.546Z,27.00
2018-07-17T16:07:53.690Z,26.80
2018-07-17T16:10:21.815Z,27.00
2018-07-17T16:12:49.960Z,27.20
2018-07-17T16:15:18.122Z,26.70
2018-07-17T16:17:46.309Z,26.60
2018-07-17T16:20:14.624Z,26.50
2018-07-17T16:22:42.699Z,26.80
2018-07-17T16:25:10.834Z,26.60
2018-07-17T16:27:40.848Z,26.30
2018-07-17T16:30:09.016Z,26.40
2018-07-17T16:32:37.212Z,26.40
2018-07-17T16:35:05.383Z,26.70
2018-07-17T16:40:01.403Z,26.20
2018-07-17T16:42:29.542Z,26.20
2018-07-17T16:44:57.683Z,26.00
2018-07-17T16:47:25.817Z,26.00
2018-07-17T16:49:54.045Z,26.00
2018-07-17T16:52:22.166Z,25.90
2018-07-17T16:54:50.319Z,26.00
2018-07-17T16:57:18.482Z,26.00
2018-07-17T16:59:46.686Z,26.00
2018-07-17T17:02:14.830Z,25.90
2018-07-17T17:04:42.986Z,25.80
2018-07-17T17:07:11.138Z,25.90
2018-07-17T17:09:39.350Z,25.80
2018-07-17T17:12:07.482Z,25.90
2018-07-17T17:14:35.618Z,25.90
2018-07-17T17:17:03.769Z,25.90
2018-07-17T17:19:31.998Z,25.80
2018-07-17T17:24:28.163Z,25.70
2018-07-17T17:26:56.215Z,25.90
2018-07-17T17:29:24.455Z,25.90
2018-07-17T17:31:52.573Z,25.80
2018-07-17T17:34:20.753Z,25.80
2018-07-17T17:36:48.987Z,25.90
2018-07-17T17:39:17.086Z,25.90
2018-07-17T17:41:45.195Z,25.70
2018-07-17T17:44:13.338Z,25.70
2018-07-17T17:46:41.447Z,25.70
2018-07-17T17:49:09.613Z,25.60
2018-07-17T17:51:39.355Z,25.60
2018-07-17T17:54:07.492Z,25.60
2018-07-17T17:56:35.668Z,25.50
2018-07-17T17:59:03.812Z,25.60
2018-07-17T18:01:32.853Z,25.60
2018-07-17T18:04:00.978Z,25.40
2018-07-17T18:06:29.137Z,25.40
2018-07-17T18:08:57.250Z,25.30
2018-07-17T18:11:25.390Z,25.20
2018-07-17T18:13:53.517Z,25.20
2018-07-17T18:16:21.666Z,25.20
2018-07-17T18:18:49.933Z,25.10
2018-07-17T18:21:18.193Z,25.10
2018-07-17T18:23:46.327Z,25.10
2018-07-17T18:28:42.370Z,25.00
2018-07-17T18:31:10.504Z,24.90
2018-07-17T18:33:38.636Z,24.80
2018-07-17T18:36:06.785Z,24.80
2018-07-17T18:38:34.922Z,24.80
2018-07-17T18:41:03.066Z,24.70
2018-07-17T18:43:31.206Z,24.60
2018-07-17T18:45:59.358Z,24.50
2018-07-17T18:48:27.509Z,24.40
2018-07-17T18:50:55.669Z,24.40
2018-07-17T18:53:23.849Z,24.30
2018-07-17T18:55:52.003Z,24.20
2018-07-17T18:58:20.162Z,24.20
2018-07-17T19:00:48.348Z,24.20
2018-07-17T19:03:16.473Z,24.10
2018-07-17T19:05:44.597Z,24.00
2018-07-17T19:08:12.741Z,24.00
2018-07-17T19:10:40.883Z,24.20
2018-07-17T19:13:09.030Z,24.10
2018-07-17T19:15:37.187Z,24.10
2018-07-17T19:18:05.317Z,24.00
2018-07-17T19:20:33.463Z,23.80
2018-07-17T19:23:01.603Z,23.70
2018-07-17T19:25:29.740Z,23.50
2018-07-17T19:27:57.878Z,23.40
2018-07-17T19:30:26.027Z,23.30
2018-07-17T19:32:54.169Z,23.30
2018-07-17T19:35:22.384Z,23.20
2018-07-17T19:37:50.530Z,23.10
2018-07-17T19:40:18.657Z,23.00
2018-07-17T19:42:46.816Z,22.90
2018-07-17T19:45:14.953Z,22.80
2018-07-17T19:47:43.129Z,22.70
2018-07-17T19:50:11.299Z,22.60
2018-07-17T19:52:39.433Z,22.50
2018-07-17T19:55:07.570Z,22.40
2018-07-17T19:57:35.720Z,22.20
2018-07-17T20:00:04.522Z,22.10
2018-07-17T20:02:32.695Z,22.10
2018-07-17T20:05:00.849Z,22.00
2018-07-17T20:07:29.016Z,22.00
2018-07-17T20:09:57.145Z,22.00
2018-07-17T20:12:25.334Z,22.00
2018-07-17T20:17:21.940Z,21.90
2018-07-17T20:19:50.093Z,21.90
2018-07-17T20:22:18.221Z,21.90
2018-07-17T20:24:46.362Z,21.80
2018-07-17T20:27:14.511Z,21.80
2018-07-17T20:29:42.658Z,21.90
2018-07-17T20:32:11.011Z,21.80
2018-07-17T20:34:39.155Z,21.70
2018-07-17T20:37:07.415Z,21.70
2018-07-17T20:39:35.553Z,21.60
2018-07-17T20:42:03.695Z,21.60
2018-07-17T20:44:31.929Z,21.50
2018-07-17T20:47:00.059Z,21.20
2018-07-17T20:49:28.212Z,21.10
2018-07-17T20:51:56.362Z,21.00
2018-07-17T20:54:24.505Z,20.90
2018-07-17T20:56:52.649Z,20.90
2018-07-17T21:01:48.719Z,20.70
2018-07-17T21:04:16.864Z,20.70
2018-07-17T21:06:44.989Z,20.70
2018-07-17T21:09:13.133Z,20.60
2018-07-17T21:11:41.380Z,20.50
2018-07-17T21:14:09.529Z,20.40
2018-07-17T21:16:37.672Z,20.20
2018-07-17T21:19:05.849Z,20.10
2018-07-17T21:21:33.980Z,20.00
2018-07-17T21:24:02.182Z,19.90
2018-07-17T21:26:30.317Z,19.80
2018-07-17T21:28:58.453Z,19.70
2018-07-17T21:31:26.606Z,19.50
2018-07-17T21:33:54.737Z,19.40
2018-07-17T21:36:22.916Z,19.30
2018-07-17T21:38:51.052Z,19.00
2018-07-17T21:41:19.193Z,18.90
2018-07-17T21:43:47.353Z,18.80
2018-07-17T21:46:15.492Z,18.70
2018-07-17T21:48:43.622Z,18.60
2018-07-17T21:51:11.789Z,18.60
2018-07-17T21:53:39.913Z,18.70
2018-07-17T21:56:08.049Z,18.60
2018-07-17T21:58:36.197Z,18.70
2018-07-17T22:01:04.322Z,18.60
2018-07-17T22:03:32.454Z,18.50
2018-07-17T22:06:00.593Z,18.40
2018-07-17T22:08:28.723Z,18.50
2018-07-17T22:10:56.883Z,18.40
2018-07-17T22:13:25.026Z,18.30
2018-07-17T22:15:53.186Z,18.20
2018-07-17T22:18:21.351Z,18.20
2018-07-17T22:23:17.374Z,18.20
2018-07-17T22:25:45.503Z,18.40
2018-07-17T22:28:13.626Z,18.20
2018-07-17T22:30:41.788Z,18.20
2018-07-17T22:33:09.937Z,18.30
2018-07-17T22:35:38.064Z,18.30
2018-07-17T22:38:06.193Z,18.30
2018-07-17T22:40:34.345Z,18.50
2018-07-17T22:43:02.465Z,18.60
2018-07-17T22:45:30.589Z,18.70
2018-07-17T22:47:58.737Z,18.70
2018-07-17T22:50:26.865Z,18.70
2018-07-17T22:52:55.007Z,18.70
2018-07-17T22:55:23.148Z,18.70
2018-07-17T22:57:51.317Z,18.70
2018-07-17T23:00:19.437Z,18.70
2018-07-17T23:02:47.566Z,18.70
2018-07-17T23:05:15.746Z,18.80
2018-07-17T23:07:43.878Z,18.80
2018-07-17T23:10:12.006Z,18.70
2018-07-17T23:12:40.141Z,18.60
2018-07-17T23:15:08.309Z,18.60
2018-07-17T23:20:04.761Z,18.50
2018-07-17T23:22:39.870Z,18.40
2018-07-17T23:25:08.112Z,18.30
2018-07-17T23:27:36.217Z,18.40
2018-07-17T23:30:04.517Z,18.40
2018-07-17T23:32:32.669Z,18.30
2018-07-17T23:35:00.808Z,18.30
2018-07-17T23:37:28.938Z,18.30
2018-07-17T23:39:57.059Z,18.30
2018-07-17T23:42:25.180Z,18.40
2018-07-17T23:44:53.308Z,18.30
2018-07-17T23:47:21.465Z,18.40
2018-07-17T23:49:49.577Z,18.30
2018-07-17T23:52:17.713Z,18.30
2018-07-17T23:54:45.842Z,18.20
2018-07-17T23:57:13.977Z,18.20
2018-07-17T23:59:42.264Z,18.20
